createdAt,value
2022-12-12T00:01:27.461Z,22.03
2022-12-12T00:03:55.944Z,19.60
2022-12-12T00:06:25.244Z,18.90
2022-12-12T00:08:53.507Z,19.30
2022-12-12T00:11:23.202Z,21.47
2022-12-12T00:13:52.803Z,18.80
2022-12-12T00:16:21.523Z,19.50
2022-12-12T00:18:51.505Z,19.87
2022-12-12T00:21:22.274Z,19.80
2022-12-12T00:23:50.812Z,19.93
2022-12-12T00:26:22.077Z,19.57
2022-12-12T00:28:50.492Z,19.93
2022-12-12T00:31:19.018Z,19.50
2022-12-12T00:33:50.016Z,20.83
2022-12-12T00:36:21.777Z,19.33
2022-12-12T00:38:50.285Z,19.90
2022-12-12T00:41:18.431Z,19.97
2022-12-12T00:43:46.676Z,18.30
2022-12-12T00:46:15.606Z,20.93
2022-12-12T00:48:43.897Z,20.00
2022-12-12T00:51:17.506Z,19.30
2022-12-12T00:53:47.546Z,18.20
2022-12-12T00:56:16.543Z,20.43
2022-12-12T00:58:44.819Z,19.43
2022-12-12T01:01:15.957Z,20.17
2022-12-12T01:03:45.038Z,20.07
2022-12-12T01:06:13.633Z,20.50
2022-12-12T01:08:42.176Z,20.33
2022-12-12T01:11:12.951Z,19.70
2022-12-12T01:13:42.413Z,20.27
2022-12-12T01:16:11.331Z,19.40
2022-12-12T01:18:40.850Z,18.93
2022-12-12T01:21:11.126Z,19.03
2022-12-12T01:23:41.160Z,20.17
2022-12-12T01:26:12.383Z,20.53
2022-12-12T01:28:40.752Z,19.67
2022-12-12T01:31:10.374Z,20.57
2022-12-12T01:33:38.909Z,20.37
2022-12-12T01:36:07.984Z,20.10
2022-12-12T01:38:37.881Z,20.73
2022-12-12T01:41:06.265Z,20.80
2022-12-12T01:43:35.832Z,20.00
2022-12-12T01:46:33.803Z,20.50
2022-12-12T01:49:07.142Z,19.60
2022-12-12T01:51:35.599Z,20.80
2022-12-12T01:54:08.448Z,20.90
2022-12-12T01:56:38.795Z,19.00
2022-12-12T01:59:12.011Z,19.50
2022-12-12T02:01:41.218Z,21.13
2022-12-12T02:04:11.205Z,19.87
2022-12-12T02:06:41.525Z,20.93
2022-12-12T02:09:13.104Z,21.10
2022-12-12T02:11:45.560Z,21.77
2022-12-12T02:14:17.686Z,22.97
2022-12-12T02:17:19.132Z,21.80
2022-12-12T02:20:26.121Z,20.73
2022-12-12T02:23:20.255Z,22.27
2022-12-12T02:26:20.537Z,20.97
2022-12-12T02:29:16.804Z,21.73
2022-12-12T02:31:52.478Z,22.50
2022-12-12T02:34:30.934Z,21.60
2022-12-12T02:37:07.523Z,21.60
2022-12-12T02:39:44.928Z,21.73
2022-12-12T02:42:24.182Z,22.70
2022-12-12T02:44:58.037Z,22.83
2022-12-12T02:47:31.926Z,23.50
2022-12-12T02:50:08.088Z,23.67
2022-12-12T02:52:37.308Z,21.10
2022-12-12T02:55:06.142Z,23.10
2022-12-12T02:57:34.314Z,23.80
2022-12-12T03:00:05.514Z,23.87
2022-12-12T03:03:16.520Z,23.10
2022-12-12T03:06:09.003Z,24.40
2022-12-12T03:08:51.189Z,22.63
2022-12-12T03:11:31.205Z,23.30
2022-12-12T03:14:04.360Z,23.50
2022-12-12T03:16:38.643Z,24.03
2022-12-12T03:19:13.802Z,22.23
2022-12-12T03:21:47.609Z,23.23
2022-12-12T03:24:22.987Z,23.17
2022-12-12T03:26:57.047Z,22.40
2022-12-12T03:29:29.314Z,22.73
2022-12-12T03:32:04.453Z,22.63
2022-12-12T03:34:38.988Z,23.40
2022-12-12T03:37:11.862Z,23.70
2022-12-12T03:39:43.870Z,24.37
2022-12-12T03:42:17.009Z,23.40
2022-12-12T03:44:49.512Z,21.63
2022-12-12T03:47:22.847Z,22.73
2022-12-12T03:49:55.972Z,21.67
2022-12-12T03:52:29.973Z,22.70
2022-12-12T03:55:03.672Z,22.40
2022-12-12T03:57:36.125Z,21.30
2022-12-12T04:00:07.050Z,21.67
2022-12-12T04:02:46.040Z,20.60
2022-12-12T04:05:21.377Z,20.97
2022-12-12T04:07:54.787Z,20.90
2022-12-12T04:10:43.760Z,20.80
2022-12-12T04:13:16.770Z,20.73
2022-12-12T04:15:56.650Z,21.60
2022-12-12T04:18:35.124Z,19.93
2022-12-12T04:21:37.386Z,20.53
2022-12-12T04:24:17.018Z,18.70
2022-12-12T04:26:50.361Z,20.80
2022-12-12T04:29:32.416Z,20.93
2022-12-12T04:32:06.975Z,20.83
2022-12-12T04:34:40.451Z,18.97
2022-12-12T04:37:15.273Z,20.13
2022-12-12T04:39:45.673Z,20.60
2022-12-12T04:42:18.287Z,21.37
2022-12-12T04:44:48.396Z,21.40
2022-12-12T04:47:17.622Z,20.50
2022-12-12T04:49:47.825Z,20.60
2022-12-12T04:52:19.521Z,20.03
2022-12-12T04:54:51.994Z,21.90
2022-12-12T04:57:25.412Z,21.40
2022-12-12T04:59:53.648Z,20.97
2022-12-12T05:02:31.690Z,23.13
2022-12-12T05:05:03.850Z,20.87
2022-12-12T05:07:39.991Z,22.70
2022-12-12T05:10:11.876Z,20.80
2022-12-12T05:12:46.699Z,24.70
2022-12-12T05:15:16.707Z,21.90
2022-12-12T05:17:47.185Z,22.43
2022-12-12T05:20:16.359Z,22.77
2022-12-12T05:22:45.890Z,20.30
2022-12-12T05:25:14.755Z,22.80
2022-12-12T05:27:43.110Z,21.13
2022-12-12T05:30:12.428Z,22.00
2022-12-12T05:32:40.873Z,22.87
2022-12-12T05:35:10.646Z,22.50
2022-12-12T05:37:38.897Z,19.83
2022-12-12T05:40:13.877Z,19.20
2022-12-12T05:42:42.488Z,21.60
2022-12-12T05:45:12.509Z,19.60
2022-12-12T05:47:41.063Z,21.20
2022-12-12T05:50:10.406Z,20.13
2022-12-12T05:52:38.653Z,20.93
2022-12-12T05:55:07.672Z,20.10
2022-12-12T05:57:37.237Z,20.67
2022-12-12T06:00:06.936Z,21.50
2022-12-12T06:02:35.299Z,19.60
2022-12-12T06:05:03.508Z,20.03
2022-12-12T06:07:31.674Z,20.63
2022-12-12T06:09:59.774Z,21.00
2022-12-12T06:12:27.920Z,20.40
2022-12-12T06:14:57.522Z,20.83
2022-12-12T06:17:31.223Z,19.90
2022-12-12T06:20:01.507Z,19.37
2022-12-12T06:22:32.760Z,19.40
2022-12-12T06:25:00.888Z,19.33
2022-12-12T06:27:29.165Z,20.20
2022-12-12T06:29:58.832Z,20.23
2022-12-12T06:32:26.977Z,18.87
2022-12-12T06:34:55.085Z,19.77
2022-12-12T06:37:23.227Z,19.93
2022-12-12T06:39:51.492Z,19.50
2022-12-12T06:42:19.731Z,19.47
2022-12-12T06:44:47.958Z,18.73
2022-12-12T06:47:17.491Z,19.20
2022-12-12T06:49:45.587Z,20.20
2022-12-12T06:52:14.593Z,19.40
2022-12-12T06:54:42.786Z,19.17
2022-12-12T06:57:10.874Z,18.97
2022-12-12T06:59:39.232Z,19.27
2022-12-12T07:02:08.154Z,17.60
2022-12-12T07:04:40.106Z,19.27
2022-12-12T07:07:08.235Z,19.23
2022-12-12T07:09:36.670Z,18.40
2022-12-12T07:12:05.207Z,18.20
2022-12-12T07:14:33.310Z,17.93
2022-12-12T07:17:01.454Z,17.17
2022-12-12T07:19:29.598Z,17.87
2022-12-12T07:22:02.853Z,18.30
2022-12-12T07:24:34.189Z,19.40
2022-12-12T07:27:02.316Z,17.63
2022-12-12T07:29:30.518Z,17.47
2022-12-12T07:31:58.610Z,17.70
2022-12-12T07:34:26.844Z,18.00
2022-12-12T07:36:59.305Z,17.50
2022-12-12T07:39:32.398Z,17.50
2022-12-12T07:42:00.885Z,16.47
2022-12-12T07:44:29.034Z,17.70
2022-12-12T07:46:59.282Z,17.83
2022-12-12T07:49:29.217Z,17.47
2022-12-12T07:51:57.635Z,18.10
2022-12-12T07:54:25.783Z,16.40
2022-12-12T07:56:55.933Z,16.80
2022-12-12T07:59:24.130Z,17.43
2022-12-12T08:01:52.384Z,17.80
2022-12-12T08:04:23.809Z,17.63
2022-12-12T08:06:58.365Z,12.70
2022-12-12T08:09:30.080Z,18.90
2022-12-12T08:12:00.312Z,16.27
2022-12-12T08:14:28.717Z,15.70
2022-12-12T08:16:57.410Z,17.20
2022-12-12T08:19:25.540Z,17.90
2022-12-12T08:21:53.723Z,16.80
2022-12-12T08:24:21.924Z,16.63
2022-12-12T08:26:51.447Z,17.33
2022-12-12T08:29:21.245Z,17.00
2022-12-12T08:31:49.667Z,16.57
2022-12-12T08:34:19.089Z,16.57
2022-12-12T08:36:47.473Z,14.80
2022-12-12T08:39:17.093Z,15.47
2022-12-12T08:41:48.022Z,17.50
2022-12-12T08:44:17.520Z,16.70
2022-12-12T08:46:48.057Z,16.27
2022-12-12T08:49:17.846Z,15.90
2022-12-12T08:51:46.111Z,16.17
2022-12-12T08:54:14.548Z,16.50
2022-12-12T08:56:42.829Z,16.70
2022-12-12T08:59:11.001Z,15.30
2022-12-12T09:01:39.273Z,15.43
2022-12-12T09:04:08.964Z,16.50
2022-12-12T09:06:37.114Z,15.83
2022-12-12T09:09:05.417Z,15.97
2022-12-12T09:11:33.627Z,17.17
2022-12-12T09:14:01.794Z,17.57
2022-12-12T09:16:30.184Z,17.70
2022-12-12T09:18:58.534Z,18.07
2022-12-12T09:21:28.075Z,17.60
2022-12-12T09:23:56.217Z,18.00
2022-12-12T09:26:24.423Z,17.87
2022-12-12T09:28:52.582Z,17.37
2022-12-12T09:31:21.551Z,18.60
2022-12-12T09:33:50.479Z,16.50
2022-12-12T09:36:18.711Z,17.63
2022-12-12T09:38:48.147Z,17.70
2022-12-12T09:41:19.153Z,17.90
2022-12-12T09:43:55.460Z,17.43
2022-12-12T09:46:31.095Z,17.57
2022-12-12T09:49:08.825Z,18.20
2022-12-12T09:51:37.521Z,18.33
2022-12-12T09:54:07.423Z,18.30
2022-12-12T09:56:42.516Z,19.83
2022-12-12T09:59:16.780Z,17.30
2022-12-12T10:01:53.666Z,16.80
2022-12-12T10:04:28.772Z,17.83
2022-12-12T10:07:02.395Z,16.53
2022-12-12T10:09:45.796Z,15.80
2022-12-12T10:12:17.997Z,16.50
2022-12-12T10:14:49.597Z,16.63
2022-12-12T10:17:21.523Z,16.20
2022-12-12T10:19:52.677Z,16.40
2022-12-12T10:22:29.883Z,16.80
2022-12-12T10:25:04.459Z,15.63
2022-12-12T10:27:32.913Z,16.87
2022-12-12T10:30:15.286Z,16.93
2022-12-12T10:33:09.609Z,16.00
2022-12-12T10:35:44.411Z,17.37
2022-12-12T10:38:27.601Z,17.33
2022-12-12T10:41:05.319Z,16.87
2022-12-12T10:43:41.026Z,16.60
2022-12-12T10:46:26.003Z,15.87
2022-12-12T10:48:55.432Z,17.13
2022-12-12T10:51:27.569Z,17.10
2022-12-12T10:53:55.689Z,18.00
2022-12-12T10:56:28.965Z,17.93
2022-12-12T10:58:59.451Z,18.27
2022-12-12T11:04:28.427Z,18.30
2022-12-12T11:06:57.395Z,16.93
2022-12-12T11:09:27.465Z,18.10
2022-12-12T11:12:02.526Z,17.33
2022-12-12T11:14:34.855Z,18.20
2022-12-12T11:17:03.172Z,16.83
2022-12-12T11:19:38.783Z,17.30
2022-12-12T11:22:07.267Z,18.33
2022-12-12T11:24:44.988Z,17.43
2022-12-12T11:27:22.860Z,17.57
2022-12-12T11:29:53.933Z,17.53
2022-12-12T11:32:25.474Z,16.70
2022-12-12T11:34:56.364Z,17.73
2022-12-12T11:37:27.822Z,16.40
2022-12-12T11:39:58.137Z,16.77
2022-12-12T11:42:30.238Z,14.20
2022-12-12T11:45:01.303Z,16.43
2022-12-12T11:47:35.894Z,16.57
2022-12-12T11:50:19.239Z,17.07
2022-12-12T11:52:48.381Z,17.47
2022-12-12T11:55:19.004Z,17.40
2022-12-12T11:58:03.975Z,16.70
2022-12-12T12:00:41.051Z,16.97
2022-12-12T12:03:37.834Z,18.87
2022-12-12T12:06:30.468Z,16.10
2022-12-12T12:09:23.358Z,16.97
2022-12-12T12:12:01.426Z,18.57
2022-12-12T12:14:46.973Z,16.87
2022-12-12T12:17:27.038Z,16.13
2022-12-12T12:20:04.009Z,15.70
2022-12-12T12:22:45.283Z,15.77
2022-12-12T12:25:28.967Z,14.20
2022-12-12T12:28:17.517Z,14.73
2022-12-12T12:30:59.398Z,15.90
2022-12-12T12:33:38.904Z,15.27
2022-12-12T12:36:20.919Z,16.93
2022-12-12T12:38:58.021Z,14.93
2022-12-12T12:41:54.387Z,14.13
2022-12-12T12:44:36.739Z,13.13
2022-12-12T12:47:14.551Z,12.60
2022-12-12T12:49:47.324Z,12.30
2022-12-12T12:52:20.760Z,12.40
2022-12-12T12:54:50.059Z,12.37
2022-12-12T12:57:25.421Z,13.80
2022-12-12T12:59:58.715Z,14.10
2022-12-12T13:02:35.690Z,15.10
2022-12-12T13:05:08.491Z,13.50
2022-12-12T13:07:47.285Z,13.30
2022-12-12T13:10:22.223Z,14.70
2022-12-12T13:12:56.816Z,13.43
2022-12-12T13:15:29.200Z,14.50
2022-12-12T13:18:02.325Z,13.73
2022-12-12T13:20:34.786Z,13.90
2022-12-12T13:23:20.983Z,12.40
2022-12-12T13:25:57.756Z,13.10
2022-12-12T13:28:29.715Z,11.60
2022-12-12T13:31:36.989Z,12.80
2022-12-12T13:34:09.413Z,12.47
2022-12-12T13:36:40.511Z,13.33
2022-12-12T13:39:23.251Z,12.57
2022-12-12T13:41:56.803Z,11.90
2022-12-12T13:44:42.653Z,12.60
2022-12-12T13:47:31.413Z,12.73
2022-12-12T13:50:07.821Z,11.43
2022-12-12T13:52:41.012Z,11.00
2022-12-12T13:55:23.867Z,12.70
2022-12-12T13:58:17.384Z,11.77
2022-12-12T14:00:46.102Z,11.70
2022-12-12T14:03:27.900Z,12.60
2022-12-12T14:06:10.656Z,12.33
2022-12-12T14:08:48.183Z,10.10
2022-12-12T14:11:33.508Z,10.10
2022-12-12T14:14:09.780Z,11.20
2022-12-12T14:16:39.001Z,10.63
2022-12-12T14:19:19.092Z,11.03
2022-12-12T14:21:49.723Z,10.93
2022-12-12T14:24:47.953Z,11.77
2022-12-12T14:27:16.755Z,10.80
2022-12-12T14:29:45.700Z,11.20
2022-12-12T14:32:30.887Z,12.33
2022-12-12T14:35:10.571Z,11.97
2022-12-12T14:37:51.808Z,11.87
2022-12-12T14:40:22.966Z,11.70
2022-12-12T14:43:18.619Z,12.37
2022-12-12T14:45:55.203Z,12.27
2022-12-12T14:48:25.342Z,13.77
2022-12-12T14:51:01.025Z,12.23
2022-12-12T14:53:33.402Z,13.67
2022-12-12T14:56:04.392Z,12.43
2022-12-12T14:58:36.917Z,13.63
2022-12-12T15:01:07.063Z,12.93
2022-12-12T15:03:39.053Z,13.60
2022-12-12T15:06:30.200Z,14.07
2022-12-12T15:09:10.960Z,15.07
2022-12-12T15:11:39.457Z,15.47
2022-12-12T15:14:07.663Z,14.90
2022-12-12T15:16:47.959Z,15.50
2022-12-12T15:19:19.295Z,14.93
2022-12-12T15:21:48.749Z,14.40
2022-12-12T15:24:24.346Z,15.90
2022-12-12T15:26:55.182Z,15.10
2022-12-12T15:29:27.399Z,14.70
2022-12-12T15:32:01.955Z,15.70
2022-12-12T15:34:37.680Z,15.33
2022-12-12T15:37:27.548Z,15.23
2022-12-12T15:40:17.515Z,13.60
2022-12-12T15:42:48.962Z,13.60
2022-12-12T15:45:27.077Z,13.27
2022-12-12T15:47:56.491Z,13.67
2022-12-12T15:50:26.592Z,14.10
2022-12-12T15:53:08.131Z,14.03
2022-12-12T15:55:37.793Z,14.27
2022-12-12T15:58:06.085Z,13.63
2022-12-12T16:00:39.855Z,15.00
2022-12-12T16:03:22.774Z,14.77
2022-12-12T16:06:04.086Z,14.60
2022-12-12T16:08:38.709Z,15.33
2022-12-12T16:11:33.611Z,15.30
2022-12-12T16:14:01.929Z,14.80
2022-12-12T16:16:49.852Z,14.50
2022-12-12T16:19:37.174Z,14.67
2022-12-12T16:22:08.349Z,13.47
2022-12-12T16:24:47.437Z,15.17
2022-12-12T16:27:17.072Z,13.83
2022-12-12T16:29:46.039Z,15.63
2022-12-12T16:32:16.132Z,14.83
2022-12-12T16:34:44.929Z,14.50
2022-12-12T16:37:18.178Z,16.00
2022-12-12T16:39:46.486Z,16.00
2022-12-12T16:42:18.278Z,15.60
2022-12-12T16:44:46.829Z,15.57
2022-12-12T16:47:17.466Z,16.23
2022-12-12T16:49:46.202Z,17.00
2022-12-12T16:52:15.356Z,17.60
2022-12-12T16:54:51.122Z,17.33
2022-12-12T16:57:22.571Z,17.90
2022-12-12T16:59:53.478Z,18.73
2022-12-12T17:02:23.781Z,15.97
2022-12-12T17:04:52.745Z,18.80
2022-12-12T17:07:21.003Z,18.27
2022-12-12T17:09:49.241Z,16.63
2022-12-12T17:12:18.939Z,17.90
2022-12-12T17:14:48.445Z,18.20
2022-12-12T17:17:16.564Z,17.37
2022-12-12T17:19:44.677Z,17.50
2022-12-12T17:22:12.787Z,18.20
2022-12-12T17:24:41.027Z,17.60
2022-12-12T17:27:11.914Z,17.30
2022-12-12T17:29:40.347Z,19.20
2022-12-12T17:32:09.817Z,19.97
2022-12-12T17:34:38.338Z,20.23
2022-12-12T17:37:06.839Z,19.73
2022-12-12T17:39:35.166Z,19.57
2022-12-12T17:42:03.308Z,18.70
2022-12-12T17:44:31.794Z,18.40
2022-12-12T17:46:59.927Z,17.63
2022-12-12T17:49:29.419Z,18.50
2022-12-12T17:51:57.567Z,16.50
2022-12-12T17:54:25.726Z,15.97
2022-12-12T17:56:53.855Z,18.17
2022-12-12T17:59:22.034Z,17.53
2022-12-12T18:01:53.915Z,16.63
2022-12-12T18:04:27.667Z,17.40
2022-12-12T18:06:57.999Z,17.03
2022-12-12T18:09:26.498Z,17.87
2022-12-12T18:11:54.630Z,17.13
2022-12-12T18:14:22.789Z,18.17
2022-12-12T18:16:52.228Z,17.20
2022-12-12T18:19:20.961Z,17.43
2022-12-12T18:22:05.350Z,15.20
2022-12-12T18:24:34.954Z,15.77
2022-12-12T18:27:03.922Z,16.00
2022-12-12T18:29:32.260Z,17.13
2022-12-12T18:32:00.765Z,15.67
2022-12-12T18:34:28.922Z,17.20
2022-12-12T18:36:57.367Z,18.50
2022-12-12T18:39:26.684Z,18.10
2022-12-12T18:41:56.174Z,16.60
2022-12-12T18:44:24.724Z,17.17
2022-12-12T18:46:53.136Z,16.40
2022-12-12T18:49:21.496Z,16.90
2022-12-12T18:51:49.696Z,16.60
2022-12-12T18:54:21.134Z,17.13
2022-12-12T18:56:49.337Z,14.77
2022-12-12T18:59:18.897Z,16.40
2022-12-12T19:01:48.173Z,17.20
2022-12-12T19:04:22.846Z,17.10
2022-12-12T19:06:53.438Z,16.77
2022-12-12T19:09:22.147Z,18.87
2022-12-12T19:11:53.322Z,17.73
2022-12-12T19:14:40.425Z,18.97
2022-12-12T19:17:18.327Z,18.80
2022-12-12T19:19:47.995Z,18.47
2022-12-12T19:22:43.752Z,18.70
2022-12-12T19:25:04.523Z,19.80
2022-12-12T19:27:32.715Z,19.00
2022-12-12T19:30:02.428Z,20.00
2022-12-12T19:32:30.655Z,20.00
2022-12-12T19:34:59.777Z,19.97
2022-12-12T19:37:28.392Z,18.70
2022-12-12T19:39:56.979Z,18.73
2022-12-12T19:42:25.409Z,19.27
2022-12-12T19:44:53.990Z,18.73
2022-12-12T19:47:23.471Z,19.70
2022-12-12T19:49:51.667Z,19.13
2022-12-12T19:52:19.877Z,18.23
2022-12-12T19:54:48.032Z,19.03
2022-12-12T19:57:16.201Z,19.40
2022-12-12T19:59:44.402Z,19.00
2022-12-12T20:02:13.143Z,19.27
2022-12-12T20:04:42.647Z,18.97
2022-12-12T20:07:11.182Z,19.27
2022-12-12T20:09:39.602Z,18.50
2022-12-12T20:12:07.847Z,18.00
2022-12-12T20:14:37.740Z,17.37
2022-12-12T20:17:05.994Z,16.50
2022-12-12T20:19:34.162Z,17.27
2022-12-12T20:22:04.181Z,17.00
2022-12-12T20:24:34.589Z,18.30
2022-12-12T20:27:04.426Z,16.97
2022-12-12T20:29:32.671Z,18.80
2022-12-12T20:32:01.656Z,17.80
2022-12-12T20:34:32.134Z,18.07
2022-12-12T20:37:00.580Z,17.47
2022-12-12T20:39:30.103Z,19.20
2022-12-12T20:41:58.290Z,19.13
2022-12-12T20:44:29.013Z,17.47
2022-12-12T20:47:00.333Z,18.13
2022-12-12T20:49:30.673Z,18.10
2022-12-12T20:52:00.121Z,16.63
2022-12-12T20:54:31.249Z,18.20
2022-12-12T20:57:01.461Z,18.50
2022-12-12T20:59:31.223Z,19.27
2022-12-12T21:01:59.770Z,17.50
2022-12-12T21:04:28.794Z,17.80
2022-12-12T21:06:56.998Z,17.77
2022-12-12T21:09:26.659Z,18.63
2022-12-12T21:11:58.644Z,16.77
2022-12-12T21:14:28.062Z,17.00
2022-12-12T21:16:56.720Z,18.03
2022-12-12T21:19:26.015Z,16.43
2022-12-12T21:21:56.283Z,17.17
2022-12-12T21:24:25.511Z,18.20
2022-12-12T21:26:56.906Z,16.23
2022-12-12T21:29:31.259Z,15.47
2022-12-12T21:32:01.063Z,17.00
2022-12-12T21:34:29.476Z,17.20
2022-12-12T21:36:59.269Z,16.17
2022-12-12T21:39:29.831Z,16.97
2022-12-12T21:41:58.060Z,17.00
2022-12-12T21:44:34.495Z,17.33
2022-12-12T21:47:03.992Z,16.30
2022-12-12T21:49:33.901Z,16.00
2022-12-12T21:52:05.011Z,16.10
2022-12-12T21:54:33.862Z,16.03
2022-12-12T21:57:02.871Z,15.53
2022-12-12T21:59:32.771Z,16.00
2022-12-12T22:02:04.331Z,15.33
2022-12-12T22:04:32.773Z,16.47
2022-12-12T22:07:01.142Z,16.57
2022-12-12T22:09:29.455Z,15.33
2022-12-12T22:12:04.332Z,14.70
2022-12-12T22:14:35.976Z,13.60
2022-12-12T22:17:05.682Z,13.43
2022-12-12T22:19:34.624Z,14.50
2022-12-12T22:22:02.876Z,13.90
2022-12-12T22:24:31.127Z,12.80
2022-12-12T22:26:59.302Z,12.30
2022-12-12T22:29:27.517Z,12.60
2022-12-12T22:31:57.310Z,13.70
2022-12-12T22:34:28.876Z,14.10
2022-12-12T22:36:57.116Z,13.80
2022-12-12T22:39:26.993Z,14.50
2022-12-12T22:41:56.040Z,13.73
2022-12-12T22:44:25.888Z,14.60
2022-12-12T22:46:55.677Z,15.57
2022-12-12T22:49:27.020Z,14.77
2022-12-12T22:51:55.879Z,14.20
2022-12-12T22:54:24.175Z,15.30
2022-12-12T22:56:52.289Z,15.40
2022-12-12T22:59:20.434Z,14.90
2022-12-12T23:01:48.542Z,15.90
2022-12-12T23:04:16.747Z,15.63
2022-12-12T23:06:46.370Z,14.77
2022-12-12T23:09:16.644Z,16.17
2022-12-12T23:11:45.885Z,14.63
2022-12-12T23:14:16.522Z,14.40
2022-12-12T23:16:45.340Z,15.73
2022-12-12T23:19:16.217Z,14.43
2022-12-12T23:21:46.095Z,13.47
2022-12-12T23:24:14.783Z,13.70
2022-12-12T23:26:43.253Z,14.47
2022-12-12T23:29:16.315Z,14.10
2022-12-12T23:31:45.173Z,14.00
2022-12-12T23:34:17.650Z,12.30
2022-12-12T23:36:47.763Z,12.13
2022-12-12T23:39:16.308Z,12.67
2022-12-12T23:41:45.229Z,13.83
2022-12-12T23:44:15.479Z,13.23
2022-12-12T23:46:44.760Z,12.70
2022-12-12T23:49:16.644Z,12.73
2022-12-12T23:51:48.116Z,12.60
2022-12-12T23:54:18.438Z,12.17
2022-12-12T23:56:47.579Z,13.10
2022-12-12T23:59:19.566Z,12.27
